Diksmuide, Belgium
Current Conditions -  °F | °C
As of 5:25 PM on Friday 21 Nov 2014 (Local Time) from EBFN Reporting Station
Haze Haze  
Wind Chill: 37°   Ceiling: 11000
Heat Index: 43°   Visibility: 2.5mi
Dew Point: 41°   Wind: 9mph
Humidity: 93%   Direction: 110°ESE
Pressure: 30.06"   Gusts: NA
Location:  51.03°N, 2.86°E
Report Text: EBFN 211625Z 11008KT 4000 BR BKN110 BKN200 06/05 Q1018 GRN
Loading
Personal Weather Stations






























Interactive Weather Map New forecast layout! Learn more

10-Day Weather Forecast

Advertisements
Track Severe Weather on mobile